sensor_id;sensor_type;location;lat;lon;timestamp;P1;durP1;ratioP1;P2;durP2;ratioP2
30048;SDS011;16879;50.852;15.602;2022-10-15T00:01:06;9.00;;;7.25;;
30048;SDS011;16879;50.852;15.602;2022-10-15T00:03:37;9.02;;;7.70;;
30048;SDS011;16879;50.852;15.602;2022-10-15T00:06:04;7.15;;;6.45;;
30048;SDS011;16879;50.852;15.602;2022-10-15T00:08:38;9.45;;;6.65;;
30048;SDS011;16879;50.852;15.602;2022-10-15T00:11:05;7.07;;;5.53;;
30048;SDS011;16879;50.852;15.602;2022-10-15T00:13:33;8.05;;;6.72;;
30048;SDS011;16879;50.852;15.602;2022-10-15T00:15:59;11.40;;;6.32;;
30048;SDS011;16879;50.852;15.602;2022-10-15T00:18:26;7.38;;;6.60;;
30048;SDS011;16879;50.852;15.602;2022-10-15T00:20:52;7.43;;;6.72;;
30048;SDS011;16879;50.852;15.602;2022-10-15T00:23:17;6.82;;;5.80;;
30048;SDS011;16879;50.852;15.602;2022-10-15T00:25:43;6.22;;;5.63;;
30048;SDS011;16879;50.852;15.602;2022-10-15T00:28:10;5.65;;;5.10;;
30048;SDS011;16879;50.852;15.602;2022-10-15T00:30:35;6.97;;;5.03;;
30048;SDS011;16879;50.852;15.602;2022-10-15T00:33:01;5.20;;;4.70;;
30048;SDS011;16879;50.852;15.602;2022-10-15T00:35:27;5.63;;;5.05;;
30048;SDS011;16879;50.852;15.602;2022-10-15T00:37:53;8.98;;;5.72;;
30048;SDS011;16879;50.852;15.602;2022-10-15T00:40:19;6.63;;;5.18;;
30048;SDS011;16879;50.852;15.602;2022-10-15T00:42:46;6.82;;;4.75;;
30048;SDS011;16879;50.852;15.602;2022-10-15T00:45:13;5.90;;;5.13;;
30048;SDS011;16879;50.852;15.602;2022-10-15T00:47:41;7.78;;;4.85;;
30048;SDS011;16879;50.852;15.602;2022-10-15T00:50:17;4.88;;;4.32;;
30048;SDS011;16879;50.852;15.602;2022-10-15T00:55:25;6.95;;;5.57;;
30048;SDS011;16879;50.852;15.602;2022-10-15T00:57:58;6.22;;;5.57;;
30048;SDS011;16879;50.852;15.602;2022-10-15T01:00:29;5.68;;;4.50;;
30048;SDS011;16879;50.852;15.602;2022-10-15T01:02:55;4.90;;;4.40;;
30048;SDS011;16879;50.852;15.602;2022-10-15T01:05:21;5.70;;;4.60;;
30048;SDS011;16879;50.852;15.602;2022-10-15T01:07:48;4.57;;;4.18;;
30048;SDS011;16879;50.852;15.602;2022-10-15T01:10:14;5.72;;;4.28;;
30048;SDS011;16879;50.852;15.602;2022-10-15T01:15:43;5.10;;;3.90;;
30048;SDS011;16879;50.852;15.602;2022-10-15T01:18:21;4.55;;;3.78;;
30048;SDS011;16879;50.852;15.602;2022-10-15T01:26:24;4.75;;;4.10;;
30048;SDS011;16879;50.852;15.602;2022-10-15T01:29:08;6.80;;;4.30;;
30048;SDS011;16879;50.852;15.602;2022-10-15T01:31:45;4.53;;;4.10;;
30048;SDS011;16879;50.852;15.602;2022-10-15T01:37:20;4.63;;;4.15;;
30048;SDS011;16879;50.852;15.602;2022-10-15T01:42:55;5.43;;;4.38;;
30048;SDS011;16879;50.852;15.602;2022-10-15T01:45:27;4.53;;;3.58;;
30048;SDS011;16879;50.852;15.602;2022-10-15T01:48:07;4.20;;;3.80;;
30048;SDS011;16879;50.852;15.602;2022-10-15T01:50:36;3.60;;;3.30;;
30048;SDS011;16879;50.852;15.602;2022-10-15T01:53:07;4.07;;;3.58;;
30048;SDS011;16879;50.852;15.602;2022-10-15T01:55:35;3.80;;;3.42;;
30048;SDS011;16879;50.852;15.602;2022-10-15T01:58:05;5.05;;;3.97;;
30048;SDS011;16879;50.852;15.602;2022-10-15T02:00:33;5.97;;;4.97;;
30048;SDS011;16879;50.852;15.602;2022-10-15T02:03:00;8.60;;;4.78;;
30048;SDS011;16879;50.852;15.602;2022-10-15T02:05:44;5.32;;;4.82;;
30048;SDS011;16879;50.852;15.602;2022-10-15T02:10:51;4.85;;;4.25;;
30048;SDS011;16879;50.852;15.602;2022-10-15T02:21:28;6.80;;;3.75;;
30048;SDS011;16879;50.852;15.602;2022-10-15T02:24:14;3.35;;;3.05;;
30048;SDS011;16879;50.852;15.602;2022-10-15T02:26:57;3.92;;;3.63;;
30048;SDS011;16879;50.852;15.602;2022-10-15T02:29:25;5.60;;;4.10;;
30048;SDS011;16879;50.852;15.602;2022-10-15T02:31:55;5.32;;;3.38;;
30048;SDS011;16879;50.852;15.602;2022-10-15T02:34:24;3.47;;;3.17;;
30048;SDS011;16879;50.852;15.602;2022-10-15T02:36:53;5.75;;;4.43;;
30048;SDS011;16879;50.852;15.602;2022-10-15T02:39:22;4.50;;;3.88;;
30048;SDS011;16879;50.852;15.602;2022-10-15T02:41:49;5.80;;;3.95;;
30048;SDS011;16879;50.852;15.602;2022-10-15T02:44:16;3.30;;;2.97;;
30048;SDS011;16879;50.852;15.602;2022-10-15T02:46:41;2.78;;;2.58;;
30048;SDS011;16879;50.852;15.602;2022-10-15T02:49:08;3.40;;;3.00;;
30048;SDS011;16879;50.852;15.602;2022-10-15T02:51:34;11.23;;;6.18;;
30048;SDS011;16879;50.852;15.602;2022-10-15T02:54:00;8.95;;;5.70;;
30048;SDS011;16879;50.852;15.602;2022-10-15T02:56:28;7.55;;;5.10;;
30048;SDS011;16879;50.852;15.602;2022-10-15T02:58:54;5.82;;;4.90;;
30048;SDS011;16879;50.852;15.602;2022-10-15T03:01:19;6.22;;;4.72;;
30048;SDS011;16879;50.852;15.602;2022-10-15T03:03:45;5.60;;;5.03;;
30048;SDS011;16879;50.852;15.602;2022-10-15T03:06:11;7.13;;;5.60;;
30048;SDS011;16879;50.852;15.602;2022-10-15T03:08:37;6.57;;;5.10;;
30048;SDS011;16879;50.852;15.602;2022-10-15T03:11:04;7.25;;;5.10;;
30048;SDS011;16879;50.852;15.602;2022-10-15T03:13:29;5.43;;;4.55;;
30048;SDS011;16879;50.852;15.602;2022-10-15T03:16:02;6.90;;;5.43;;
30048;SDS011;16879;50.852;15.602;2022-10-15T03:18:32;7.90;;;5.43;;
30048;SDS011;16879;50.852;15.602;2022-10-15T03:20:58;6.38;;;4.63;;
30048;SDS011;16879;50.852;15.602;2022-10-15T03:23:24;7.60;;;4.60;;
30048;SDS011;16879;50.852;15.602;2022-10-15T03:25:51;7.60;;;5.72;;
30048;SDS011;16879;50.852;15.602;2022-10-15T03:28:17;8.98;;;4.32;;
30048;SDS011;16879;50.852;15.602;2022-10-15T03:30:43;9.55;;;3.38;;
30048;SDS011;16879;50.852;15.602;2022-10-15T03:33:09;3.63;;;3.30;;
30048;SDS011;16879;50.852;15.602;2022-10-15T03:35:35;5.32;;;3.25;;
30048;SDS011;16879;50.852;15.602;2022-10-15T03:38:02;5.95;;;3.90;;
30048;SDS011;16879;50.852;15.602;2022-10-15T03:40:28;3.78;;;3.13;;
30048;SDS011;16879;50.852;15.602;2022-10-15T03:42:54;4.53;;;3.17;;
30048;SDS011;16879;50.852;15.602;2022-10-15T03:45:20;3.00;;;2.70;;
30048;SDS011;16879;50.852;15.602;2022-10-15T03:47:47;3.85;;;2.75;;
30048;SDS011;16879;50.852;15.602;2022-10-15T03:50:13;7.18;;;2.95;;
30048;SDS011;16879;50.852;15.602;2022-10-15T03:52:39;3.28;;;2.85;;
30048;SDS011;16879;50.852;15.602;2022-10-15T03:55:06;3.88;;;2.72;;
30048;SDS011;16879;50.852;15.602;2022-10-15T03:57:33;3.47;;;3.05;;
30048;SDS011;16879;50.852;15.602;2022-10-15T04:00:00;3.05;;;2.70;;
30048;SDS011;16879;50.852;15.602;2022-10-15T04:02:26;2.63;;;2.05;;
30048;SDS011;16879;50.852;15.602;2022-10-15T04:04:52;4.35;;;2.55;;
30048;SDS011;16879;50.852;15.602;2022-10-15T04:07:19;3.40;;;3.10;;
30048;SDS011;16879;50.852;15.602;2022-10-15T04:09:46;3.70;;;3.08;;
30048;SDS011;16879;50.852;15.602;2022-10-15T04:12:12;3.03;;;2.63;;
30048;SDS011;16879;50.852;15.602;2022-10-15T04:14:38;4.00;;;3.15;;
30048;SDS011;16879;50.852;15.602;2022-10-15T04:17:05;3.17;;;2.75;;
30048;SDS011;16879;50.852;15.602;2022-10-15T04:19:31;3.60;;;3.25;;
30048;SDS011;16879;50.852;15.602;2022-10-15T04:21:57;2.80;;;2.53;;
30048;SDS011;16879;50.852;15.602;2022-10-15T04:24:24;2.60;;;2.40;;
30048;SDS011;16879;50.852;15.602;2022-10-15T04:26:50;2.67;;;2.28;;
30048;SDS011;16879;50.852;15.602;2022-10-15T04:29:16;4.45;;;3.67;;
30048;SDS011;16879;50.852;15.602;2022-10-15T04:31:42;13.88;;;8.20;;
30048;SDS011;16879;50.852;15.602;2022-10-15T04:34:08;9.15;;;5.25;;
30048;SDS011;16879;50.852;15.602;2022-10-15T04:36:34;4.38;;;3.42;;
30048;SDS011;16879;50.852;15.602;2022-10-15T04:39:01;4.32;;;3.20;;
30048;SDS011;16879;50.852;15.602;2022-10-15T04:41:27;6.25;;;4.05;;
30048;SDS011;16879;50.852;15.602;2022-10-15T04:43:54;5.30;;;4.38;;
30048;SDS011;16879;50.852;15.602;2022-10-15T04:46:21;4.80;;;4.05;;
30048;SDS011;16879;50.852;15.602;2022-10-15T04:48:47;5.15;;;3.72;;
30048;SDS011;16879;50.852;15.602;2022-10-15T04:51:14;4.43;;;4.03;;
30048;SDS011;16879;50.852;15.602;2022-10-15T04:53:41;3.85;;;3.50;;
30048;SDS011;16879;50.852;15.602;2022-10-15T04:56:11;4.68;;;4.28;;
30048;SDS011;16879;50.852;15.602;2022-10-15T04:58:40;4.38;;;3.85;;
30048;SDS011;16879;50.852;15.602;2022-10-15T05:01:10;4.28;;;3.85;;
30048;SDS011;16879;50.852;15.602;2022-10-15T05:03:38;4.95;;;3.78;;
30048;SDS011;16879;50.852;15.602;2022-10-15T05:06:07;5.68;;;4.57;;
30048;SDS011;16879;50.852;15.602;2022-10-15T05:08:34;7.28;;;5.07;;
30048;SDS011;16879;50.852;15.602;2022-10-15T05:11:05;4.88;;;4.25;;
30048;SDS011;16879;50.852;15.602;2022-10-15T05:13:42;8.38;;;5.03;;
30048;SDS011;16879;50.852;15.602;2022-10-15T05:16:09;5.50;;;4.20;;
30048;SDS011;16879;50.852;15.602;2022-10-15T05:18:40;5.32;;;4.82;;
30048;SDS011;16879;50.852;15.602;2022-10-15T05:21:08;5.57;;;4.47;;
30048;SDS011;16879;50.852;15.602;2022-10-15T05:23:34;3.90;;;3.60;;
30048;SDS011;16879;50.852;15.602;2022-10-15T05:26:02;3.40;;;3.10;;
30048;SDS011;16879;50.852;15.602;2022-10-15T05:28:29;3.60;;;3.30;;
30048;SDS011;16879;50.852;15.602;2022-10-15T05:30:55;4.03;;;3.72;;
30048;SDS011;16879;50.852;15.602;2022-10-15T05:33:27;4.18;;;3.10;;
30048;SDS011;16879;50.852;15.602;2022-10-15T05:35:53;4.38;;;3.50;;
30048;SDS011;16879;50.852;15.602;2022-10-15T05:38:19;4.78;;;3.40;;
30048;SDS011;16879;50.852;15.602;2022-10-15T05:40:48;4.93;;;3.55;;
30048;SDS011;16879;50.852;15.602;2022-10-15T05:43:14;6.07;;;4.53;;
30048;SDS011;16879;50.852;15.602;2022-10-15T05:45:40;7.38;;;3.97;;
30048;SDS011;16879;50.852;15.602;2022-10-15T05:48:06;4.32;;;3.92;;
30048;SDS011;16879;50.852;15.602;2022-10-15T05:50:32;5.60;;;4.28;;
30048;SDS011;16879;50.852;15.602;2022-10-15T05:52:58;3.97;;;3.65;;
30048;SDS011;16879;50.852;15.602;2022-10-15T05:55:24;5.72;;;4.05;;
30048;SDS011;16879;50.852;15.602;2022-10-15T05:57:50;5.82;;;3.15;;
30048;SDS011;16879;50.852;15.602;2022-10-15T06:00:16;4.63;;;4.07;;
30048;SDS011;16879;50.852;15.602;2022-10-15T06:02:42;3.92;;;3.53;;
30048;SDS011;16879;50.852;15.602;2022-10-15T06:05:07;4.75;;;3.72;;
30048;SDS011;16879;50.852;15.602;2022-10-15T06:07:34;4.30;;;3.90;;
30048;SDS011;16879;50.852;15.602;2022-10-15T06:10:00;4.93;;;4.43;;
30048;SDS011;16879;50.852;15.602;2022-10-15T06:12:28;5.75;;;5.15;;
30048;SDS011;16879;50.852;15.602;2022-10-15T06:14:53;5.95;;;4.75;;
30048;SDS011;16879;50.852;15.602;2022-10-15T06:17:19;4.82;;;4.20;;
30048;SDS011;16879;50.852;15.602;2022-10-15T06:19:45;4.95;;;3.60;;
30048;SDS011;16879;50.852;15.602;2022-10-15T06:22:11;5.10;;;3.20;;
30048;SDS011;16879;50.852;15.602;2022-10-15T06:24:38;3.53;;;3.22;;
30048;SDS011;16879;50.852;15.602;2022-10-15T06:27:04;3.50;;;3.17;;
30048;SDS011;16879;50.852;15.602;2022-10-15T06:29:29;4.05;;;3.40;;
30048;SDS011;16879;50.852;15.602;2022-10-15T06:31:55;3.10;;;2.80;;
30048;SDS011;16879;50.852;15.602;2022-10-15T06:34:21;2.70;;;2.50;;
30048;SDS011;16879;50.852;15.602;2022-10-15T06:36:47;3.05;;;2.85;;
30048;SDS011;16879;50.852;15.602;2022-10-15T06:39:13;2.80;;;2.50;;
30048;SDS011;16879;50.852;15.602;2022-10-15T06:41:39;3.42;;;3.13;;
30048;SDS011;16879;50.852;15.602;2022-10-15T06:44:05;2.92;;;2.45;;
30048;SDS011;16879;50.852;15.602;2022-10-15T06:46:32;2.63;;;2.20;;
30048;SDS011;16879;50.852;15.602;2022-10-15T06:48:57;2.60;;;2.40;;
30048;SDS011;16879;50.852;15.602;2022-10-15T06:51:23;2.33;;;2.13;;
30048;SDS011;16879;50.852;15.602;2022-10-15T06:53:49;2.58;;;2.38;;
30048;SDS011;16879;50.852;15.602;2022-10-15T06:56:15;2.35;;;2.17;;
30048;SDS011;16879;50.852;15.602;2022-10-15T06:58:41;3.05;;;2.42;;
30048;SDS011;16879;50.852;15.602;2022-10-15T07:01:07;3.47;;;2.42;;
30048;SDS011;16879;50.852;15.602;2022-10-15T07:03:34;2.55;;;2.35;;
30048;SDS011;16879;50.852;15.602;2022-10-15T07:06:03;3.60;;;2.63;;
30048;SDS011;16879;50.852;15.602;2022-10-15T07:08:30;3.05;;;2.72;;
30048;SDS011;16879;50.852;15.602;2022-10-15T07:10:56;4.28;;;3.22;;
30048;SDS011;16879;50.852;15.602;2022-10-15T07:13:24;3.30;;;2.90;;
30048;SDS011;16879;50.852;15.602;2022-10-15T07:15:51;3.03;;;2.75;;
30048;SDS011;16879;50.852;15.602;2022-10-15T07:18:20;4.85;;;3.22;;
30048;SDS011;16879;50.852;15.602;2022-10-15T07:20:46;2.85;;;2.40;;
30048;SDS011;16879;50.852;15.602;2022-10-15T07:23:12;3.42;;;2.95;;
30048;SDS011;16879;50.852;15.602;2022-10-15T07:25:37;2.90;;;2.63;;
30048;SDS011;16879;50.852;15.602;2022-10-15T07:28:04;2.95;;;2.45;;
30048;SDS011;16879;50.852;15.602;2022-10-15T07:30:30;2.30;;;1.80;;
30048;SDS011;16879;50.852;15.602;2022-10-15T07:32:59;1.30;;;1.13;;
30048;SDS011;16879;50.852;15.602;2022-10-15T07:35:25;8.55;;;5.90;;
30048;SDS011;16879;50.852;15.602;2022-10-15T07:37:52;6.32;;;4.57;;
30048;SDS011;16879;50.852;15.602;2022-10-15T07:40:18;12.90;;;6.60;;
30048;SDS011;16879;50.852;15.602;2022-10-15T07:42:45;10.20;;;4.80;;
30048;SDS011;16879;50.852;15.602;2022-10-15T07:45:17;7.32;;;4.55;;
30048;SDS011;16879;50.852;15.602;2022-10-15T07:47:43;6.50;;;4.32;;
30048;SDS011;16879;50.852;15.602;2022-10-15T07:50:09;6.15;;;4.55;;
30048;SDS011;16879;50.852;15.602;2022-10-15T07:52:35;5.60;;;3.42;;
30048;SDS011;16879;50.852;15.602;2022-10-15T07:55:01;4.63;;;3.00;;
30048;SDS011;16879;50.852;15.602;2022-10-15T07:57:27;1.42;;;1.33;;
30048;SDS011;16879;50.852;15.602;2022-10-15T07:59:53;2.00;;;1.50;;
30048;SDS011;16879;50.852;15.602;2022-10-15T08:02:19;2.20;;;1.83;;
30048;SDS011;16879;50.852;15.602;2022-10-15T08:04:46;8.07;;;5.03;;
30048;SDS011;16879;50.852;15.602;2022-10-15T08:07:12;2.53;;;1.80;;
30048;SDS011;16879;50.852;15.602;2022-10-15T08:09:38;2.95;;;2.58;;
30048;SDS011;16879;50.852;15.602;2022-10-15T08:12:04;1.83;;;1.45;;
30048;SDS011;16879;50.852;15.602;2022-10-15T08:14:31;0.47;;;0.47;;
30048;SDS011;16879;50.852;15.602;2022-10-15T08:17:01;0.85;;;0.50;;
30048;SDS011;16879;50.852;15.602;2022-10-15T08:19:27;0.30;;;0.30;;
30048;SDS011;16879;50.852;15.602;2022-10-15T08:21:54;0.32;;;0.32;;
30048;SDS011;16879;50.852;15.602;2022-10-15T08:24:20;0.90;;;0.47;;
30048;SDS011;16879;50.852;15.602;2022-10-15T08:26:46;0.28;;;0.28;;
30048;SDS011;16879;50.852;15.602;2022-10-15T08:29:13;0.85;;;0.35;;
30048;SDS011;16879;50.852;15.602;2022-10-15T08:31:39;2.90;;;1.67;;
30048;SDS011;16879;50.852;15.602;2022-10-15T08:34:06;0.40;;;0.40;;
30048;SDS011;16879;50.852;15.602;2022-10-15T08:36:32;0.55;;;0.55;;
30048;SDS011;16879;50.852;15.602;2022-10-15T08:38:58;0.77;;;0.38;;
30048;SDS011;16879;50.852;15.602;2022-10-15T08:44:04;1.10;;;0.88;;
30048;SDS011;16879;50.852;15.602;2022-10-15T08:46:38;1.58;;;0.80;;
30048;SDS011;16879;50.852;15.602;2022-10-15T08:49:33;0.77;;;0.40;;
30048;SDS011;16879;50.852;15.602;2022-10-15T08:52:19;0.32;;;0.32;;
30048;SDS011;16879;50.852;15.602;2022-10-15T08:55:10;1.20;;;0.90;;
30048;SDS011;16879;50.852;15.602;2022-10-15T08:57:40;2.28;;;1.45;;
30048;SDS011;16879;50.852;15.602;2022-10-15T09:00:21;1.90;;;1.80;;
30048;SDS011;16879;50.852;15.602;2022-10-15T09:05:29;0.77;;;0.55;;
30048;SDS011;16879;50.852;15.602;2022-10-15T09:08:22;1.30;;;0.60;;
30048;SDS011;16879;50.852;15.602;2022-10-15T09:11:01;0.63;;;0.40;;
30048;SDS011;16879;50.852;15.602;2022-10-15T09:13:36;0.30;;;0.30;;
30048;SDS011;16879;50.852;15.602;2022-10-15T09:16:23;0.38;;;0.32;;
30048;SDS011;16879;50.852;15.602;2022-10-15T09:18:53;0.40;;;0.40;;
30048;SDS011;16879;50.852;15.602;2022-10-15T09:21:24;0.32;;;0.25;;
30048;SDS011;16879;50.852;15.602;2022-10-15T09:23:50;0.30;;;0.30;;
30048;SDS011;16879;50.852;15.602;2022-10-15T09:28:54;4.65;;;1.42;;
30048;SDS011;16879;50.852;15.602;2022-10-15T09:34:33;0.80;;;0.75;;
30048;SDS011;16879;50.852;15.602;2022-10-15T09:37:05;0.30;;;0.30;;
30048;SDS011;16879;50.852;15.602;2022-10-15T09:42:30;0.20;;;0.20;;
30048;SDS011;16879;50.852;15.602;2022-10-15T09:45:04;0.30;;;0.30;;
30048;SDS011;16879;50.852;15.602;2022-10-15T09:47:35;0.20;;;0.20;;
30048;SDS011;16879;50.852;15.602;2022-10-15T09:50:05;0.20;;;0.20;;
30048;SDS011;16879;50.852;15.602;2022-10-15T09:57:29;2.60;;;1.23;;
30048;SDS011;16879;50.852;15.602;2022-10-15T09:59:59;1.23;;;1.13;;
30048;SDS011;16879;50.852;15.602;2022-10-15T10:02:27;0.60;;;0.50;;
30048;SDS011;16879;50.852;15.602;2022-10-15T10:04:53;7.47;;;1.45;;
30048;SDS011;16879;50.852;15.602;2022-10-15T10:07:26;0.45;;;0.40;;
30048;SDS011;16879;50.852;15.602;2022-10-15T10:09:54;0.22;;;0.22;;
30048;SDS011;16879;50.852;15.602;2022-10-15T10:12:22;0.32;;;0.30;;
30048;SDS011;16879;50.852;15.602;2022-10-15T10:14:55;0.30;;;0.30;;
30048;SDS011;16879;50.852;15.602;2022-10-15T10:17:25;0.30;;;0.30;;
30048;SDS011;16879;50.852;15.602;2022-10-15T10:20:14;0.20;;;0.20;;
30048;SDS011;16879;50.852;15.602;2022-10-15T10:22:47;0.40;;;0.20;;
30048;SDS011;16879;50.852;15.602;2022-10-15T10:27:48;0.20;;;0.20;;
30048;SDS011;16879;50.852;15.602;2022-10-15T10:30:14;2.20;;;0.30;;
30048;SDS011;16879;50.852;15.602;2022-10-15T10:32:40;0.35;;;0.35;;
30048;SDS011;16879;50.852;15.602;2022-10-15T10:35:12;0.32;;;0.32;;
30048;SDS011;16879;50.852;15.602;2022-10-15T10:40:20;0.25;;;0.25;;
30048;SDS011;16879;50.852;15.602;2022-10-15T10:45:52;1.05;;;0.68;;
30048;SDS011;16879;50.852;15.602;2022-10-15T10:48:25;0.40;;;0.40;;
30048;SDS011;16879;50.852;15.602;2022-10-15T10:51:16;0.30;;;0.30;;
30048;SDS011;16879;50.852;15.602;2022-10-15T10:53:52;0.45;;;0.45;;
30048;SDS011;16879;50.852;15.602;2022-10-15T10:56:22;0.40;;;0.40;;
30048;SDS011;16879;50.852;15.602;2022-10-15T10:58:54;0.75;;;0.50;;
30048;SDS011;16879;50.852;15.602;2022-10-15T11:01:27;0.40;;;0.40;;
30048;SDS011;16879;50.852;15.602;2022-10-15T11:03:53;0.65;;;0.65;;
30048;SDS011;16879;50.852;15.602;2022-10-15T11:06:36;0.50;;;0.50;;
30048;SDS011;16879;50.852;15.602;2022-10-15T11:12:02;0.85;;;0.60;;
30048;SDS011;16879;50.852;15.602;2022-10-15T11:17:16;0.80;;;0.40;;
30048;SDS011;16879;50.852;15.602;2022-10-15T11:19:58;0.30;;;0.30;;
30048;SDS011;16879;50.852;15.602;2022-10-15T11:25:29;3.83;;;0.30;;
30048;SDS011;16879;50.852;15.602;2022-10-15T11:42:17;0.38;;;0.38;;
30048;SDS011;16879;50.852;15.602;2022-10-15T11:50:30;0.30;;;0.30;;
30048;SDS011;16879;50.852;15.602;2022-10-15T11:55:51;0.60;;;0.40;;
30048;SDS011;16879;50.852;15.602;2022-10-15T12:01:03;0.75;;;0.60;;
30048;SDS011;16879;50.852;15.602;2022-10-15T12:06:08;0.38;;;0.38;;
30048;SDS011;16879;50.852;15.602;2022-10-15T12:08:40;0.38;;;0.38;;
30048;SDS011;16879;50.852;15.602;2022-10-15T12:11:26;0.30;;;0.30;;
30048;SDS011;16879;50.852;15.602;2022-10-15T12:14:03;0.73;;;0.60;;
30048;SDS011;16879;50.852;15.602;2022-10-15T12:19:25;0.68;;;0.50;;
30048;SDS011;16879;50.852;15.602;2022-10-15T12:22:36;0.20;;;0.20;;
30048;SDS011;16879;50.852;15.602;2022-10-15T12:25:05;0.68;;;0.47;;
30048;SDS011;16879;50.852;15.602;2022-10-15T12:28:01;2.55;;;0.65;;
30048;SDS011;16879;50.852;15.602;2022-10-15T12:30:30;0.70;;;0.68;;
30048;SDS011;16879;50.852;15.602;2022-10-15T12:32:58;0.50;;;0.50;;
30048;SDS011;16879;50.852;15.602;2022-10-15T12:35:33;0.95;;;0.80;;
30048;SDS011;16879;50.852;15.602;2022-10-15T12:38:11;3.00;;;2.80;;
30048;SDS011;16879;50.852;15.602;2022-10-15T12:40:45;1.95;;;1.25;;
30048;SDS011;16879;50.852;15.602;2022-10-15T12:43:19;3.53;;;2.13;;
30048;SDS011;16879;50.852;15.602;2022-10-15T12:45:49;2.47;;;1.80;;
30048;SDS011;16879;50.852;15.602;2022-10-15T12:48:20;2.53;;;1.45;;
30048;SDS011;16879;50.852;15.602;2022-10-15T12:51:40;1.75;;;1.20;;
30048;SDS011;16879;50.852;15.602;2022-10-15T12:53:43;3.20;;;1.27;;
30048;SDS011;16879;50.852;15.602;2022-10-15T12:58:39;1.92;;;1.48;;
30048;SDS011;16879;50.852;15.602;2022-10-15T13:08:46;2.42;;;1.42;;
30048;SDS011;16879;50.852;15.602;2022-10-15T13:15:01;4.00;;;2.15;;
30048;SDS011;16879;50.852;15.602;2022-10-15T13:17:21;3.55;;;1.88;;
30048;SDS011;16879;50.852;15.602;2022-10-15T13:20:07;2.42;;;1.65;;
30048;SDS011;16879;50.852;15.602;2022-10-15T13:23:06;1.40;;;1.27;;
30048;SDS011;16879;50.852;15.602;2022-10-15T13:25:36;2.58;;;1.88;;
30048;SDS011;16879;50.852;15.602;2022-10-15T13:28:21;3.35;;;2.30;;
30048;SDS011;16879;50.852;15.602;2022-10-15T13:33:51;3.40;;;1.90;;
30048;SDS011;16879;50.852;15.602;2022-10-15T13:36:23;5.28;;;2.15;;
30048;SDS011;16879;50.852;15.602;2022-10-15T13:38:59;3.60;;;1.45;;
30048;SDS011;16879;50.852;15.602;2022-10-15T13:41:36;4.47;;;2.00;;
30048;SDS011;16879;50.852;15.602;2022-10-15T13:47:01;8.43;;;3.20;;
30048;SDS011;16879;50.852;15.602;2022-10-15T13:49:27;5.30;;;1.90;;
30048;SDS011;16879;50.852;15.602;2022-10-15T13:51:53;7.47;;;2.70;;
30048;SDS011;16879;50.852;15.602;2022-10-15T13:54:23;6.97;;;3.25;;
30048;SDS011;16879;50.852;15.602;2022-10-15T13:56:56;1.92;;;1.27;;
30048;SDS011;16879;50.852;15.602;2022-10-15T13:59:26;1.60;;;1.20;;
30048;SDS011;16879;50.852;15.602;2022-10-15T14:01:55;2.40;;;1.30;;
30048;SDS011;16879;50.852;15.602;2022-10-15T14:04:25;2.85;;;1.30;;
30048;SDS011;16879;50.852;15.602;2022-10-15T14:06:54;4.03;;;2.35;;
30048;SDS011;16879;50.852;15.602;2022-10-15T14:09:39;1.55;;;1.27;;
30048;SDS011;16879;50.852;15.602;2022-10-15T14:12:07;1.42;;;1.10;;
30048;SDS011;16879;50.852;15.602;2022-10-15T14:14:39;1.40;;;1.15;;
30048;SDS011;16879;50.852;15.602;2022-10-15T14:17:11;3.70;;;1.55;;
30048;SDS011;16879;50.852;15.602;2022-10-15T14:19:49;2.08;;;1.40;;
30048;SDS011;16879;50.852;15.602;2022-10-15T14:22:22;2.28;;;1.52;;
30048;SDS011;16879;50.852;15.602;2022-10-15T14:25:00;2.17;;;1.70;;
30048;SDS011;16879;50.852;15.602;2022-10-15T14:27:34;2.15;;;1.65;;
30048;SDS011;16879;50.852;15.602;2022-10-15T14:30:17;2.50;;;1.85;;
30048;SDS011;16879;50.852;15.602;2022-10-15T14:32:48;1.38;;;0.98;;
30048;SDS011;16879;50.852;15.602;2022-10-15T14:35:33;2.17;;;1.45;;
30048;SDS011;16879;50.852;15.602;2022-10-15T14:38:51;1.63;;;1.30;;
30048;SDS011;16879;50.852;15.602;2022-10-15T14:48:51;1.50;;;1.02;;
30048;SDS011;16879;50.852;15.602;2022-10-15T14:52:09;1.00;;;0.90;;
30048;SDS011;16879;50.852;15.602;2022-10-15T14:55:03;1.00;;;0.80;;
30048;SDS011;16879;50.852;15.602;2022-10-15T14:58:05;2.10;;;1.15;;
30048;SDS011;16879;50.852;15.602;2022-10-15T15:07:37;1.58;;;1.10;;
30048;SDS011;16879;50.852;15.602;2022-10-15T15:13:41;0.75;;;0.75;;
30048;SDS011;16879;50.852;15.602;2022-10-15T15:16:39;1.10;;;1.00;;
30048;SDS011;16879;50.852;15.602;2022-10-15T15:20:05;1.42;;;1.33;;
30048;SDS011;16879;50.852;15.602;2022-10-15T15:22:32;2.60;;;1.98;;
30048;SDS011;16879;50.852;15.602;2022-10-15T15:25:00;4.68;;;2.53;;
30048;SDS011;16879;50.852;15.602;2022-10-15T15:30:07;5.53;;;3.85;;
30048;SDS011;16879;50.852;15.602;2022-10-15T15:40:25;4.57;;;2.97;;
30048;SDS011;16879;50.852;15.602;2022-10-15T15:42:52;4.15;;;3.00;;
30048;SDS011;16879;50.852;15.602;2022-10-15T15:45:22;5.68;;;3.83;;
30048;SDS011;16879;50.852;15.602;2022-10-15T15:48:10;5.50;;;3.90;;
30048;SDS011;16879;50.852;15.602;2022-10-15T15:50:47;4.47;;;3.00;;
30048;SDS011;16879;50.852;15.602;2022-10-15T15:53:52;4.88;;;3.45;;
30048;SDS011;16879;50.852;15.602;2022-10-15T15:56:22;7.25;;;3.80;;
30048;SDS011;16879;50.852;15.602;2022-10-15T15:58:51;4.15;;;3.05;;
30048;SDS011;16879;50.852;15.602;2022-10-15T16:01:18;5.18;;;3.50;;
30048;SDS011;16879;50.852;15.602;2022-10-15T16:03:45;4.88;;;3.47;;
30048;SDS011;16879;50.852;15.602;2022-10-15T16:06:12;20.50;;;16.08;;
30048;SDS011;16879;50.852;15.602;2022-10-15T16:08:59;11.57;;;8.48;;
30048;SDS011;16879;50.852;15.602;2022-10-15T16:11:26;10.55;;;8.82;;
30048;SDS011;16879;50.852;15.602;2022-10-15T16:14:22;6.85;;;4.28;;
30048;SDS011;16879;50.852;15.602;2022-10-15T16:16:48;4.43;;;3.58;;
30048;SDS011;16879;50.852;15.602;2022-10-15T16:19:27;4.18;;;3.78;;
30048;SDS011;16879;50.852;15.602;2022-10-15T16:25:54;8.18;;;5.93;;
30048;SDS011;16879;50.852;15.602;2022-10-15T16:28:25;7.68;;;5.63;;
30048;SDS011;16879;50.852;15.602;2022-10-15T16:30:54;7.53;;;5.63;;
30048;SDS011;16879;50.852;15.602;2022-10-15T16:33:27;8.88;;;6.47;;
30048;SDS011;16879;50.852;15.602;2022-10-15T16:36:13;10.07;;;7.22;;
30048;SDS011;16879;50.852;15.602;2022-10-15T16:47:32;6.68;;;5.32;;
30048;SDS011;16879;50.852;15.602;2022-10-15T16:49:58;5.30;;;4.50;;
30048;SDS011;16879;50.852;15.602;2022-10-15T16:52:25;5.80;;;5.20;;
30048;SDS011;16879;50.852;15.602;2022-10-15T16:54:51;4.38;;;3.92;;
30048;SDS011;16879;50.852;15.602;2022-10-15T16:57:17;4.75;;;4.18;;
30048;SDS011;16879;50.852;15.602;2022-10-15T16:59:43;4.60;;;3.83;;
30048;SDS011;16879;50.852;15.602;2022-10-15T17:02:29;3.78;;;3.47;;
30048;SDS011;16879;50.852;15.602;2022-10-15T17:05:14;6.15;;;5.05;;
30048;SDS011;16879;50.852;15.602;2022-10-15T17:07:42;5.80;;;5.20;;
30048;SDS011;16879;50.852;15.602;2022-10-15T17:12:44;7.47;;;6.70;;
30048;SDS011;16879;50.852;15.602;2022-10-15T17:15:15;14.45;;;11.75;;
30048;SDS011;16879;50.852;15.602;2022-10-15T17:17:42;11.07;;;9.75;;
30048;SDS011;16879;50.852;15.602;2022-10-15T17:20:14;9.57;;;8.07;;
30048;SDS011;16879;50.852;15.602;2022-10-15T17:26:19;24.27;;;19.00;;
30048;SDS011;16879;50.852;15.602;2022-10-15T17:29:09;29.48;;;21.33;;
30048;SDS011;16879;50.852;15.602;2022-10-15T17:34:47;28.73;;;20.27;;
30048;SDS011;16879;50.852;15.602;2022-10-15T17:37:53;32.17;;;22.88;;
30048;SDS011;16879;50.852;15.602;2022-10-15T17:41:13;25.13;;;18.90;;